createdAt,value
2022-11-21T00:01:21.536Z,6.80
2022-11-21T00:03:48.483Z,6.80
2022-11-21T00:06:16.111Z,6.80
2022-11-21T00:08:44.371Z,6.90
2022-11-21T00:11:13.250Z,6.90
2022-11-21T00:13:40.255Z,6.90
2022-11-21T00:16:10.049Z,6.80
2022-11-21T00:18:36.967Z,6.80
2022-11-21T00:21:11.327Z,6.80
2022-11-21T00:23:38.345Z,6.80
2022-11-21T00:26:06.762Z,6.70
2022-11-21T00:28:34.543Z,6.70
2022-11-21T00:31:01.881Z,6.60
2022-11-21T00:33:28.870Z,6.60
2022-11-21T00:35:55.948Z,6.60
2022-11-21T00:38:24.360Z,6.50
2022-11-21T00:40:51.193Z,6.50
2022-11-21T00:43:18.142Z,6.50
2022-11-21T00:45:45.071Z,6.50
2022-11-21T00:48:11.938Z,6.50
2022-11-21T00:50:38.801Z,6.50
2022-11-21T00:53:05.648Z,6.40
2022-11-21T00:55:32.535Z,6.50
2022-11-21T00:57:59.474Z,6.50
2022-11-21T01:00:26.347Z,6.50
2022-11-21T01:02:53.173Z,6.50
2022-11-21T01:05:20.138Z,6.50
2022-11-21T01:07:49.403Z,6.50
2022-11-21T01:10:16.524Z,6.40
2022-11-21T01:12:44.695Z,6.40
2022-11-21T01:15:13.965Z,6.40
2022-11-21T01:17:40.902Z,6.30
2022-11-21T01:20:08.498Z,6.30
2022-11-21T01:22:35.471Z,6.30
2022-11-21T01:25:02.353Z,6.30
2022-11-21T01:27:29.220Z,6.30
2022-11-21T01:29:56.151Z,6.20
2022-11-21T01:32:22.994Z,6.20
2022-11-21T01:34:49.891Z,6.20
2022-11-21T01:37:16.778Z,6.20
2022-11-21T01:39:43.777Z,6.10
2022-11-21T01:42:12.798Z,6.10
2022-11-21T01:44:54.747Z,6.10
2022-11-21T01:47:22.826Z,6.00
2022-11-21T01:49:52.056Z,6.00
2022-11-21T01:52:29.686Z,6.00
2022-11-21T01:55:01.847Z,5.90
2022-11-21T01:57:38.824Z,5.80
2022-11-21T02:00:10.599Z,5.80
2022-11-21T02:02:41.698Z,5.80
2022-11-21T02:05:13.549Z,5.70
2022-11-21T02:07:43.263Z,5.60
2022-11-21T02:10:11.460Z,5.50
2022-11-21T02:12:54.354Z,5.40
2022-11-21T02:15:23.893Z,5.50
2022-11-21T02:17:50.849Z,5.50
2022-11-21T02:20:26.582Z,5.50
2022-11-21T02:23:20.021Z,5.50
2022-11-21T02:25:46.970Z,5.40
2022-11-21T02:28:16.812Z,5.30
2022-11-21T02:30:44.232Z,5.30
2022-11-21T02:33:12.291Z,5.40
2022-11-21T02:35:39.791Z,5.40
2022-11-21T02:38:28.022Z,5.40
2022-11-21T02:41:12.018Z,5.30
2022-11-21T02:43:44.652Z,5.30
2022-11-21T02:46:11.630Z,5.30
2022-11-21T02:48:39.256Z,5.30
2022-11-21T02:51:06.295Z,5.30
2022-11-21T02:53:33.447Z,5.20
2022-11-21T02:56:00.351Z,5.10
2022-11-21T02:58:27.563Z,5.00
2022-11-21T03:00:55.421Z,5.00
2022-11-21T03:03:22.723Z,5.00
2022-11-21T03:05:50.114Z,5.00
2022-11-21T03:08:17.213Z,5.00
2022-11-21T03:10:44.174Z,4.90
2022-11-21T03:13:11.082Z,4.90
2022-11-21T03:15:38.002Z,5.00
2022-11-21T03:18:05.345Z,4.90
2022-11-21T03:20:34.488Z,4.90
2022-11-21T03:23:02.027Z,4.90
2022-11-21T03:25:29.388Z,4.80
2022-11-21T03:27:56.307Z,4.80
2022-11-21T03:30:25.708Z,4.80
2022-11-21T03:32:56.678Z,4.80
2022-11-21T03:35:24.364Z,4.80
2022-11-21T03:37:51.459Z,4.90
2022-11-21T03:40:18.531Z,4.90
2022-11-21T03:42:45.527Z,4.80
2022-11-21T03:45:12.598Z,4.80
2022-11-21T03:47:39.495Z,4.80
2022-11-21T03:50:06.924Z,4.80
2022-11-21T03:52:33.822Z,4.80
2022-11-21T03:55:00.954Z,4.90
2022-11-21T03:57:27.969Z,4.90
2022-11-21T03:59:55.219Z,4.90
2022-11-21T04:02:22.147Z,4.80
2022-11-21T04:04:49.327Z,4.80
2022-11-21T04:07:16.740Z,4.80
2022-11-21T04:09:43.677Z,4.80
2022-11-21T04:12:10.546Z,4.80
2022-11-21T04:14:37.496Z,4.70
2022-11-21T04:17:04.537Z,4.70
2022-11-21T04:19:31.483Z,4.70
2022-11-21T04:21:58.373Z,4.70
2022-11-21T04:24:25.470Z,4.70
2022-11-21T04:26:55.342Z,4.60
2022-11-21T04:29:22.436Z,4.60
2022-11-21T04:31:49.494Z,4.50
2022-11-21T04:34:16.609Z,4.50
2022-11-21T04:36:43.568Z,4.50
2022-11-21T04:39:10.534Z,4.50
2022-11-21T04:41:37.457Z,4.50
2022-11-21T04:44:04.732Z,4.50
2022-11-21T04:46:31.713Z,4.50
2022-11-21T04:48:58.593Z,4.60
2022-11-21T04:51:25.625Z,4.60
2022-11-21T04:53:52.835Z,4.60
2022-11-21T04:56:19.790Z,4.60
2022-11-21T04:58:46.882Z,4.70
2022-11-21T05:01:15.347Z,4.70
2022-11-21T05:03:42.389Z,4.80
2022-11-21T05:06:09.397Z,4.80
2022-11-21T05:08:36.384Z,4.80
2022-11-21T05:11:22.043Z,4.80
2022-11-21T05:13:48.976Z,4.70
2022-11-21T05:16:16.073Z,4.70
2022-11-21T05:18:42.982Z,4.80
2022-11-21T05:21:09.804Z,4.80
2022-11-21T05:23:36.848Z,4.80
2022-11-21T05:26:03.851Z,4.80
2022-11-21T05:28:30.791Z,4.80
2022-11-21T05:30:57.635Z,4.80
2022-11-21T05:33:24.620Z,4.90
2022-11-21T05:35:51.522Z,4.90
2022-11-21T05:38:18.460Z,4.90
2022-11-21T05:40:45.374Z,4.80
2022-11-21T05:43:31.662Z,4.80
2022-11-21T05:45:58.904Z,4.80
2022-11-21T05:48:25.821Z,4.80
2022-11-21T05:50:53.036Z,4.80
2022-11-21T05:53:20.297Z,4.90
2022-11-21T05:55:48.882Z,5.10
2022-11-21T05:58:15.933Z,5.20
2022-11-21T06:00:42.934Z,5.20
2022-11-21T06:03:28.468Z,5.30
2022-11-21T06:06:16.352Z,5.30
2022-11-21T06:08:46.428Z,5.40
2022-11-21T06:11:15.677Z,5.40
2022-11-21T06:13:43.406Z,5.40
2022-11-21T06:16:15.770Z,5.30
2022-11-21T06:18:56.831Z,5.30
2022-11-21T06:21:28.331Z,5.20
2022-11-21T06:23:57.061Z,5.20
2022-11-21T06:26:26.332Z,5.20
2022-11-21T06:28:54.275Z,5.10
2022-11-21T06:31:24.666Z,5.10
2022-11-21T06:33:56.563Z,5.10
2022-11-21T06:36:23.863Z,5.10
2022-11-21T06:38:52.701Z,5.10
2022-11-21T06:41:22.294Z,5.10
2022-11-21T06:43:49.396Z,5.10
2022-11-21T06:46:16.622Z,5.20
2022-11-21T06:48:44.366Z,5.20
2022-11-21T06:51:22.491Z,5.30
2022-11-21T06:53:57.026Z,5.30
2022-11-21T06:56:29.168Z,5.30
2022-11-21T06:58:56.974Z,5.30
2022-11-21T07:01:24.743Z,5.30
2022-11-21T07:03:52.381Z,5.20
2022-11-21T07:06:19.378Z,5.30
2022-11-21T07:08:46.360Z,5.20
2022-11-21T07:11:30.106Z,5.20
2022-11-21T07:13:57.179Z,5.30
2022-11-21T07:16:26.447Z,5.30
2022-11-21T07:18:53.527Z,5.30
2022-11-21T07:21:23.457Z,5.30
2022-11-21T07:23:50.326Z,5.30
2022-11-21T07:26:17.327Z,5.30
2022-11-21T07:28:44.500Z,5.30
2022-11-21T07:31:13.907Z,5.30
2022-11-21T07:33:43.553Z,5.40
2022-11-21T07:36:14.044Z,5.40
2022-11-21T07:38:41.930Z,5.40
2022-11-21T07:41:09.736Z,5.40
2022-11-21T07:43:36.661Z,5.40
2022-11-21T07:46:03.931Z,5.40
2022-11-21T07:48:31.202Z,5.50
2022-11-21T07:50:58.075Z,5.50
2022-11-21T07:53:25.139Z,5.50
2022-11-21T07:55:52.209Z,5.50
2022-11-21T07:58:19.273Z,5.50
2022-11-21T08:00:46.423Z,5.50
2022-11-21T08:03:13.687Z,5.50
2022-11-21T08:05:44.527Z,5.50
2022-11-21T08:08:13.438Z,5.50
2022-11-21T08:10:42.422Z,5.50
2022-11-21T08:13:09.620Z,5.50
2022-11-21T08:15:37.643Z,5.60
2022-11-21T08:18:15.416Z,5.60
2022-11-21T08:20:42.951Z,5.60
2022-11-21T08:23:10.792Z,5.60
2022-11-21T08:25:39.110Z,5.60
2022-11-21T08:28:08.556Z,5.60
2022-11-21T08:30:36.295Z,5.60
2022-11-21T08:33:04.955Z,5.50
2022-11-21T08:35:32.257Z,5.60
2022-11-21T08:38:01.087Z,5.60
2022-11-21T08:40:33.653Z,5.60
2022-11-21T08:43:05.764Z,5.60
2022-11-21T08:45:34.231Z,5.60
2022-11-21T08:48:01.651Z,5.60
2022-11-21T08:50:28.773Z,5.60
2022-11-21T08:53:02.318Z,5.70
2022-11-21T08:55:30.141Z,5.80
2022-11-21T08:57:57.081Z,5.80
2022-11-21T09:00:24.229Z,5.80
2022-11-21T09:02:51.590Z,5.90
2022-11-21T09:05:18.530Z,5.90
2022-11-21T09:07:45.527Z,6.00
2022-11-21T09:10:12.793Z,6.00
2022-11-21T09:12:39.816Z,6.10
2022-11-21T09:15:26.533Z,6.10
2022-11-21T09:18:05.987Z,6.20
2022-11-21T09:20:40.712Z,6.20
2022-11-21T09:23:09.974Z,6.30
2022-11-21T09:25:38.503Z,6.30
2022-11-21T09:28:07.341Z,6.40
2022-11-21T09:30:34.748Z,6.40
2022-11-21T09:33:05.904Z,6.40
2022-11-21T09:35:33.079Z,6.50
2022-11-21T09:38:00.563Z,6.50
2022-11-21T09:40:30.334Z,6.60
2022-11-21T09:43:18.788Z,6.60
2022-11-21T09:45:45.953Z,6.70
2022-11-21T09:48:24.241Z,6.70
2022-11-21T09:50:59.031Z,6.80
2022-11-21T09:53:39.539Z,6.80
2022-11-21T09:56:16.491Z,7.00
2022-11-21T09:59:01.880Z,6.90
2022-11-21T10:01:29.822Z,6.90
2022-11-21T10:03:56.813Z,6.90
2022-11-21T10:06:43.032Z,6.90
2022-11-21T10:09:38.603Z,7.00
2022-11-21T10:12:45.754Z,6.90
2022-11-21T10:15:27.495Z,7.00
2022-11-21T10:18:32.540Z,7.00
2022-11-21T10:21:37.254Z,7.00
2022-11-21T10:24:45.484Z,7.00
2022-11-21T10:27:16.131Z,6.90
2022-11-21T10:29:55.039Z,6.90
2022-11-21T10:32:30.294Z,7.00
2022-11-21T10:35:01.778Z,7.00
2022-11-21T10:37:37.606Z,7.10
2022-11-21T10:40:13.652Z,7.20
2022-11-21T10:42:58.739Z,7.20
2022-11-21T10:45:26.284Z,7.20
2022-11-21T10:47:53.759Z,7.20
2022-11-21T10:51:01.740Z,7.30
2022-11-21T10:53:48.761Z,7.50
2022-11-21T10:56:19.325Z,7.60
2022-11-21T10:58:57.384Z,7.70
2022-11-21T11:01:33.276Z,7.80
2022-11-21T11:04:28.987Z,8.00
2022-11-21T11:06:57.363Z,8.10
2022-11-21T11:09:34.855Z,8.10
2022-11-21T11:12:47.693Z,8.20
2022-11-21T11:15:19.254Z,8.20
2022-11-21T11:17:57.528Z,8.30
2022-11-21T11:20:36.540Z,8.30
2022-11-21T11:23:22.553Z,8.40
2022-11-21T11:25:52.151Z,8.50
2022-11-21T11:28:20.077Z,8.50
2022-11-21T11:30:49.640Z,8.60
2022-11-21T11:33:37.578Z,8.60
2022-11-21T11:36:26.096Z,8.70
2022-11-21T11:38:58.812Z,8.70
2022-11-21T11:41:54.592Z,8.50
2022-11-21T11:45:06.140Z,8.50
2022-11-21T11:47:42.598Z,8.60
2022-11-21T11:50:23.317Z,8.50
2022-11-21T11:53:03.448Z,8.60
2022-11-21T11:55:40.906Z,8.60
2022-11-21T11:58:40.634Z,8.60
2022-11-21T12:01:40.172Z,8.60
2022-11-21T12:04:16.825Z,8.50
2022-11-21T12:10:05.351Z,8.40
2022-11-21T12:12:58.683Z,8.20
2022-11-21T12:15:49.357Z,8.20
2022-11-21T12:18:22.545Z,8.20
2022-11-21T12:21:15.676Z,8.30
2022-11-21T12:23:48.748Z,8.30
2022-11-21T12:26:49.228Z,8.30
2022-11-21T12:29:22.872Z,8.30
2022-11-21T12:32:21.799Z,8.20
2022-11-21T12:35:25.028Z,8.20
2022-11-21T12:38:12.317Z,8.20
2022-11-21T12:40:42.487Z,8.20
2022-11-21T12:43:40.417Z,8.20
2022-11-21T12:46:28.054Z,8.30
2022-11-21T12:49:32.684Z,8.30
2022-11-21T12:52:27.590Z,8.30
2022-11-21T12:55:03.298Z,8.30
2022-11-21T12:57:57.045Z,8.30
2022-11-21T13:01:03.228Z,8.30
2022-11-21T13:03:54.916Z,8.30
2022-11-21T13:06:30.556Z,8.30
2022-11-21T13:09:01.706Z,8.30
2022-11-21T13:11:58.570Z,8.30
2022-11-21T13:14:42.287Z,8.30
2022-11-21T13:17:21.058Z,8.30
2022-11-21T13:19:58.928Z,8.30
2022-11-21T13:22:38.008Z,8.30
2022-11-21T13:25:30.061Z,8.30
2022-11-21T13:28:20.318Z,8.30
2022-11-21T13:30:52.427Z,8.20
2022-11-21T13:33:37.550Z,8.20
2022-11-21T13:36:10.652Z,8.30
2022-11-21T13:38:53.112Z,8.20
2022-11-21T13:41:56.290Z,8.10
2022-11-21T13:44:32.284Z,8.10
2022-11-21T13:47:05.014Z,8.10
2022-11-21T13:49:43.572Z,8.10
2022-11-21T13:52:53.827Z,8.10
2022-11-21T13:56:02.753Z,8.10
2022-11-21T13:58:56.734Z,8.10
2022-11-21T14:01:39.973Z,8.00
2022-11-21T14:04:26.346Z,8.00
2022-11-21T14:06:53.935Z,8.00
2022-11-21T14:09:25.885Z,8.00
2022-11-21T14:12:05.170Z,8.00
2022-11-21T14:14:47.241Z,8.00
2022-11-21T14:17:23.936Z,8.00
2022-11-21T14:19:55.330Z,7.90
2022-11-21T14:22:38.725Z,7.90
2022-11-21T14:25:18.579Z,7.90
2022-11-21T14:27:49.674Z,7.90
2022-11-21T14:30:31.852Z,7.90
2022-11-21T14:33:20.086Z,7.80
2022-11-21T14:35:55.025Z,7.90
2022-11-21T14:38:23.044Z,7.80
2022-11-21T14:40:51.275Z,7.80
2022-11-21T14:43:45.027Z,7.80
2022-11-21T14:46:22.166Z,7.80
2022-11-21T14:48:49.548Z,7.80
2022-11-21T14:51:18.565Z,7.80
2022-11-21T14:53:47.404Z,7.80
2022-11-21T14:56:26.359Z,7.70
2022-11-21T14:58:54.774Z,7.70
2022-11-21T15:01:47.428Z,7.70
2022-11-21T15:04:15.641Z,7.70
2022-11-21T15:06:47.029Z,7.70
2022-11-21T15:12:09.415Z,7.70
2022-11-21T15:14:47.351Z,7.70
2022-11-21T15:17:18.269Z,7.70
2022-11-21T15:19:47.188Z,7.70
2022-11-21T15:22:33.978Z,7.70
2022-11-21T15:25:13.020Z,7.70
2022-11-21T15:27:39.970Z,7.70
2022-11-21T15:30:24.211Z,7.70
2022-11-21T15:33:03.284Z,7.70
2022-11-21T15:35:56.263Z,7.70
2022-11-21T15:39:02.557Z,7.70
2022-11-21T15:41:32.279Z,7.70
2022-11-21T15:44:02.237Z,7.70
2022-11-21T15:46:31.950Z,7.70
2022-11-21T15:49:06.249Z,7.70
2022-11-21T15:52:06.511Z,7.60
2022-11-21T15:54:34.518Z,7.60
2022-11-21T15:57:01.420Z,7.60
2022-11-21T15:57:15.708Z,7.70
2022-11-21T15:59:28.937Z,7.70
2022-11-21T16:01:56.028Z,7.60
2022-11-21T16:04:25.936Z,7.60
2022-11-21T16:06:54.358Z,7.70
2022-11-21T16:09:21.537Z,7.70
2022-11-21T16:11:48.645Z,7.70
2022-11-21T16:14:18.438Z,7.60
2022-11-21T16:16:47.386Z,7.70
2022-11-21T16:19:15.353Z,7.60
2022-11-21T16:21:42.503Z,7.70
2022-11-21T16:24:09.516Z,7.60
2022-11-21T16:26:36.687Z,7.60
2022-11-21T16:29:06.749Z,7.60
2022-11-21T16:31:33.863Z,7.60
2022-11-21T16:34:01.076Z,7.60
2022-11-21T16:36:31.764Z,7.60
2022-11-21T16:39:05.162Z,7.60
2022-11-21T16:41:35.103Z,7.60
2022-11-21T16:44:02.116Z,7.60
2022-11-21T16:46:29.051Z,7.60
2022-11-21T16:49:01.919Z,7.60
2022-11-21T16:51:30.234Z,7.60
2022-11-21T16:54:00.477Z,7.60
2022-11-21T16:56:32.321Z,7.60
2022-11-21T16:58:59.383Z,7.60
2022-11-21T17:01:28.376Z,7.60
2022-11-21T17:03:55.437Z,7.60
2022-11-21T17:06:27.133Z,7.60
2022-11-21T17:08:54.960Z,7.60
2022-11-21T17:11:26.838Z,7.60
2022-11-21T17:13:53.832Z,7.60
2022-11-21T17:16:22.192Z,7.60
2022-11-21T17:18:53.696Z,7.60
2022-11-21T17:21:20.745Z,7.60
2022-11-21T17:23:48.132Z,7.60
2022-11-21T17:26:20.701Z,7.60
2022-11-21T17:28:58.149Z,7.60
2022-11-21T17:31:25.673Z,7.60
2022-11-21T17:33:54.832Z,7.60
2022-11-21T17:36:27.067Z,7.60
2022-11-21T17:38:54.603Z,7.60
2022-11-21T17:41:25.591Z,7.60
2022-11-21T17:43:57.544Z,7.60
2022-11-21T17:46:25.654Z,7.60
2022-11-21T17:48:57.172Z,7.60
2022-11-21T17:51:26.473Z,7.60
2022-11-21T17:53:54.256Z,7.60
2022-11-21T17:56:23.850Z,7.60
2022-11-21T17:58:51.824Z,7.60
2022-11-21T18:01:20.657Z,7.60
2022-11-21T18:03:53.611Z,7.60
2022-11-21T18:06:20.597Z,7.70
2022-11-21T18:08:48.919Z,7.70
2022-11-21T18:11:19.860Z,7.70
2022-11-21T18:13:48.097Z,7.70
2022-11-21T18:16:18.522Z,7.70
2022-11-21T18:18:45.988Z,7.70
2022-11-21T18:21:16.179Z,7.70
2022-11-21T18:23:45.229Z,7.70
2022-11-21T18:26:14.547Z,7.70
2022-11-21T18:28:42.050Z,7.60
2022-11-21T18:31:14.946Z,7.60
2022-11-21T18:33:43.284Z,7.60
2022-11-21T18:36:12.129Z,7.60
2022-11-21T18:38:53.632Z,7.50
2022-11-21T18:41:31.424Z,7.50
2022-11-21T18:44:00.904Z,7.50
2022-11-21T18:46:29.741Z,7.50
2022-11-21T18:49:04.807Z,7.40
2022-11-21T18:51:33.517Z,7.50
2022-11-21T18:54:07.921Z,7.50
2022-11-21T18:56:36.763Z,7.40
2022-11-21T18:59:05.873Z,7.40
2022-11-21T19:01:33.743Z,7.40
2022-11-21T19:04:00.972Z,7.40
2022-11-21T19:06:28.233Z,7.40
2022-11-21T19:08:57.217Z,7.40
2022-11-21T19:11:29.495Z,7.40
2022-11-21T19:13:57.906Z,7.40
2022-11-21T19:16:27.153Z,7.40
2022-11-21T19:19:26.492Z,7.40
2022-11-21T19:21:42.676Z,7.40
2022-11-21T19:24:14.409Z,7.40
2022-11-21T19:26:41.620Z,7.40
2022-11-21T19:29:09.266Z,7.30
2022-11-21T19:31:41.013Z,7.30
2022-11-21T19:34:12.365Z,7.30
2022-11-21T19:36:39.646Z,7.40
2022-11-21T19:39:06.739Z,7.30
2022-11-21T19:41:33.662Z,7.30
2022-11-21T19:44:01.991Z,7.40
2022-11-21T19:46:33.521Z,7.40
2022-11-21T19:49:01.369Z,7.40
2022-11-21T19:51:33.874Z,7.40
2022-11-21T19:54:08.526Z,7.40
2022-11-21T19:56:36.056Z,7.30
2022-11-21T19:59:03.198Z,7.30
2022-11-21T20:01:32.468Z,7.30
2022-11-21T20:04:02.123Z,7.30
2022-11-21T20:06:31.653Z,7.30
2022-11-21T20:09:05.292Z,7.30
2022-11-21T20:11:33.001Z,7.30
2022-11-21T20:14:00.148Z,7.20
2022-11-21T20:16:29.950Z,7.20
2022-11-21T20:19:00.282Z,7.30
2022-11-21T20:21:27.622Z,7.20
2022-11-21T20:23:55.852Z,7.20
2022-11-21T20:26:23.612Z,7.20
2022-11-21T20:28:53.669Z,7.20
2022-11-21T20:31:27.599Z,7.20
2022-11-21T20:34:00.391Z,7.30
2022-11-21T20:36:29.621Z,7.20
2022-11-21T20:39:02.450Z,7.20
2022-11-21T20:41:34.880Z,7.20
2022-11-21T20:47:03.577Z,7.20
2022-11-21T20:49:30.837Z,7.30
2022-11-21T20:54:45.657Z,7.30
2022-11-21T20:57:15.402Z,7.30
2022-11-21T20:59:43.654Z,7.30
2022-11-21T21:02:14.600Z,7.30
2022-11-21T21:04:42.098Z,7.30
2022-11-21T21:07:10.821Z,7.20
2022-11-21T21:09:37.827Z,7.30
2022-11-21T21:12:05.818Z,7.20
2022-11-21T21:14:32.862Z,7.20
2022-11-21T21:17:01.307Z,7.30
2022-11-21T21:19:29.673Z,7.30
2022-11-21T21:21:56.840Z,7.20
2022-11-21T21:24:24.515Z,7.20
2022-11-21T21:26:51.877Z,7.20
2022-11-21T21:29:21.006Z,7.20
2022-11-21T21:31:51.547Z,7.20
2022-11-21T21:34:22.120Z,7.20
2022-11-21T21:36:49.589Z,7.20
2022-11-21T21:39:16.495Z,7.20
2022-11-21T21:41:47.588Z,7.20
2022-11-21T21:44:15.821Z,7.20
2022-11-21T21:46:45.008Z,7.20
2022-11-21T21:49:12.746Z,7.20
2022-11-21T21:51:41.463Z,7.20
2022-11-21T21:54:16.451Z,7.20
2022-11-21T21:56:44.469Z,7.20
2022-11-21T21:59:12.450Z,7.20
2022-11-21T22:01:42.792Z,7.20
2022-11-21T22:04:12.351Z,7.20
2022-11-21T22:06:39.739Z,7.20
2022-11-21T22:09:08.282Z,7.20
2022-11-21T22:11:38.177Z,7.20
2022-11-21T22:14:11.342Z,7.20
2022-11-21T22:16:41.017Z,7.20
2022-11-21T22:19:09.385Z,7.20
2022-11-21T22:21:39.643Z,7.20
2022-11-21T22:24:25.973Z,7.20
2022-11-21T22:26:55.965Z,7.20
2022-11-21T22:29:24.327Z,7.30
2022-11-21T22:31:52.820Z,7.30
2022-11-21T22:34:19.817Z,7.20
2022-11-21T22:36:47.451Z,7.30
2022-11-21T22:39:15.474Z,7.30
2022-11-21T22:41:42.854Z,7.30
2022-11-21T22:44:10.157Z,7.30
2022-11-21T22:46:37.354Z,7.30
2022-11-21T22:49:04.429Z,7.30
2022-11-21T22:51:31.355Z,7.40
2022-11-21T22:53:58.584Z,7.30
2022-11-21T22:56:27.719Z,7.30
2022-11-21T22:58:54.895Z,7.30
2022-11-21T23:01:25.705Z,7.40
2022-11-21T23:03:53.015Z,7.40
2022-11-21T23:06:26.146Z,7.40
2022-11-21T23:08:55.247Z,7.40
2022-11-21T23:11:24.632Z,7.40
2022-11-21T23:13:52.521Z,7.40
2022-11-21T23:16:19.871Z,7.40
2022-11-21T23:18:49.421Z,7.40
2022-11-21T23:21:16.510Z,7.40
2022-11-21T23:23:44.566Z,7.30
2022-11-21T23:26:11.946Z,7.40
2022-11-21T23:28:39.110Z,7.30
2022-11-21T23:31:06.308Z,7.30
2022-11-21T23:33:33.984Z,7.30
2022-11-21T23:36:00.960Z,7.30
2022-11-21T23:38:27.908Z,7.30
2022-11-21T23:40:54.929Z,7.30
2022-11-21T23:43:22.039Z,7.20
2022-11-21T23:45:53.625Z,7.20
2022-11-21T23:48:21.402Z,7.10
2022-11-21T23:50:50.859Z,7.10
2022-11-21T23:53:18.808Z,7.10
2022-11-21T23:55:45.944Z,7.00
2022-11-21T23:58:13.617Z,7.00
